Airport View

Enter ICAO identifier to see the current METAR for that AWOS.

KFNL for example

KCTB 020556Z AUTO 26013KT 10SM CLR 12/02 A2989

2 Sep 2014 06:41

Frequency: 119.025

Phone: 406-873-2939

Other Area AWOS: K8S0 - CWRY - CWFJ - CYQL

TAF KCTB 020520Z 0206/0306 26011KT P6SM FEW090 FM021700 26018G28KT P6SM BKN200